Philo, California
Current Conditions -  °F | °C
As of 1:56 AM on Friday 31 Oct 2014 (Local Time) from KUKI Reporting Station
Broken Clouds Broken Clouds  
Wind Chill: 59°   Ceiling: 2400
Heat Index: 59°   Visibility: 10mi
Dew Point: 54°   Wind: 0mph
Humidity: 83%   Direction: NA
Pressure: 29.87"   Gusts: NA
Location:  39.07°N, 123.45°W
Report Text: KUKI 310856Z AUTO 00000KT 10SM BKN024 BKN100 15/12 A2987 RMK AO2 SLP108 60000 T01500122 58007
Loading
Personal Weather Stations






























Interactive Weather Map
Tropical Storm Tracking
New forecast layout! Learn more

10-Day Weather Forecast

Advertisements
Track Severe Weather on mobile